ususleCam  ususleCam


Besuchen Sie unsere anderen Wetter Stationen:

Template documentation
and downloads

And another site



METAR-Meldungen aus der Umgebung

   
LSZH - Zurich-Kloten (a, Switzerland
Entfernung von der Station bis: NW 47 km
Aktualisierung: 14-11-2019 11:50
Klar  
Klar  
   Wind: WNW 13 km/h
Wind: WNW 13 km/h
Temperatur: 4°C
Gefühlt: 1°C
Taupunkt: 0°C
Luftfeuchte: 75%
Luftdruck: 1002 hPa
Sichtbarkeit: More than 10 km
Bewölkung: Klar
LSZH 141050Z 30007KT CAVOK 04/M00 Q1002 NOSIG
LSZL - Locarno, Switzerland
Entfernung von der Station bis: S 119 km
Aktualisierung: 14-11-2019 11:50
Bewölkt  
Bewölkt  
   Wind: variiert 2 km/h
Wind: variiert 2 km/h
Temperatur: 4°C
Taupunkt: 0°C
Luftfeuchte: 75%
Luftdruck: 1010 hPa
Bewölkung: Bewölkt
Sichtbarkeit: More than 10 km
Bewölkung: Stark bewölkt 7500 ft,
Bewölkt 10000 ft
LSZL 141050Z VRB01KT 9999 BKN075 OVC100 04/00 Q1010 RMK BLU
LSZS - Samedan, Switzerland
Entfernung von der Station bis: SO 101 km
Aktualisierung: 14-11-2019 11:50
Klar  
Klar  
   Wind: variiert 4 km/h
Wind: variiert 4 km/h
Temperatur: -6°C
Taupunkt: -7°C
Luftfeuchte: 93%
Luftdruck: 1005 hPa
Sichtbarkeit: More than 10 km
Bewölkung: Klar
LSZS 141050Z VRB02KT CAVOK M06/M07 Q1005 RMK I
LSME - Emmen, Switzerland
Entfernung von der Station bis: WSW 58 km
Aktualisierung: 14-11-2019 11:20
Teilweise bewölkt  
Teilweise bewölkt  
   Wind: Windstille
Wind: Windstille
Temperatur: 1°C
Taupunkt: 1°C
Luftfeuchte: 100%
Luftdruck: 1003 hPa
Bewölkung: Teilweise bewölkt
Sichtbarkeit: 6 km
Bewölkung: Teilweise bewölkt 200 ft
LSME 141020Z 00000KT 6000 SCT002 01/01 Q1003 RMK WHT
LSZB - Bern/Belp, Switzerland
Entfernung von der Station bis: WSW 122 km
Aktualisierung: 14-11-2019 11:50
Stark bewölkt  
Stark bewölkt  
   Wind: Osten 4 km/h
Wind: Osten 4 km/h
Temperatur: 3°C
Taupunkt: 1°C
Luftfeuchte: 87%
Luftdruck: 1001 hPa
Bewölkung: Stark bewölkt
Sichtbarkeit: More than 10 km
Bewölkung: Stark bewölkt 11000 ft
LSZB 141050Z 10002KT 9999 BKN110 03/01 Q1001 NOSIG
LFSB - Bale/Mulhouse, France
Entfernung von der Station bis: WNW 121 km
Aktualisierung: 14-11-2019 11:30
Klar  
Klar  
   Wind: SO 15 km/h
Wind: SO 15 km/h
Temperatur: 7°C
Gefühlt: 4°C
Taupunkt: 0°C
Luftfeuchte: 61%
Luftdruck: 1002 hPa
Sichtbarkeit: More than 10 km
Bewölkung: Klar
LFSB 141030Z 14008KT CAVOK 07/00 Q1002 NOSIG

Script entwickelt von  Saratoga-weather.org Angepasst für das Template von  Weerstation Leuven

Von uns verwendete Ausrüstung:

Wetterstation
Davis Vue

Wetterprogramm
Weather Display

Davis Vue

Weather Display